Time;durP1;ratioP1;P1;durP2;ratioP2;P2;SDS_P1;SDS_P2;PMS_P1;PMS_P2;Temp;Humidity;BMP_temperature;BMP_pressure;BME280_temperature;BME280_humidity;BME280_pressure;Samples;Min_cycle;Max_cycle;Signal;HPM_P1;HPM_P2
2021/07/24 00:01:20;;;;;;;6.80;6.18;;;20.60;99.90;;;;;;5056719;28;20163;-79
2021/07/24 00:03:46;;;;;;;11.65;5.43;;;20.60;99.90;;;;;;5039390;28;20265;-79
2021/07/24 00:06:12;;;;;;;7.20;6.32;;;20.40;99.90;;;;;;5057726;28;20218;-92
2021/07/24 00:08:38;;;;;;;9.38;6.05;;;20.10;99.90;;;;;;5058155;28;20167;-89
2021/07/24 00:11:09;;;;;;;14.50;6.75;;;20.10;99.90;;;;;;5058290;28;20156;-89
2021/07/24 00:13:37;;;;;;;7.82;6.07;;;19.90;99.90;;;;;;5058414;28;20171;-92
2021/07/24 00:16:03;;;;;;;11.32;5.93;;;20.10;99.90;;;;;;5057993;28;20202;-92
2021/07/24 00:18:29;;;;;;;11.23;6.50;;;20.10;99.90;;;;;;5057977;28;20651;-90
2021/07/24 00:20:55;;;;;;;9.98;6.00;;;20.10;99.90;;;;;;5056428;28;20183;-79
2021/07/24 00:23:21;;;;;;;7.93;7.03;;;19.80;99.90;;;;;;5038234;28;20174;-79
2021/07/24 00:25:46;;;;;;;9.95;5.82;;;19.70;99.90;;;;;;5056125;28;20262;-80
2021/07/24 00:28:12;;;;;;;17.98;7.57;;;19.80;99.90;;;;;;5038340;28;20264;-79
2021/07/24 00:30:39;;;;;;;13.85;6.97;;;19.90;99.90;;;;;;5038335;28;20322;-79
2021/07/24 00:33:05;;;;;;;9.40;6.63;;;20.00;99.90;;;;;;5038142;28;20164;-79
2021/07/24 00:35:31;;;;;;;7.18;6.47;;;20.10;99.90;;;;;;5056054;28;20184;-79
2021/07/24 00:37:57;;;;;;;6.53;5.85;;;19.90;99.90;;;;;;5038838;28;20664;-79
2021/07/24 00:40:26;;;;;;;9.07;6.88;;;20.00;99.90;;;;;;5056411;28;20167;-79
2021/07/24 00:42:53;;;;;;;11.02;6.32;;;19.80;99.90;;;;;;5055968;28;20220;-79
2021/07/24 00:45:20;;;;;;;7.32;6.57;;;19.70;99.90;;;;;;5056157;28;20640;-79
2021/07/24 00:47:49;;;;;;;8.70;6.07;;;19.70;99.90;;;;;;5056229;28;20166;-79
2021/07/24 00:50:16;;;;;;;11.18;6.72;;;19.60;99.90;;;;;;5038083;28;20203;-79
2021/07/24 00:52:43;;;;;;;8.02;7.05;;;19.50;99.90;;;;;;5055985;28;20175;-79
2021/07/24 00:55:13;;;;;;;9.27;6.82;;;19.60;99.90;;;;;;5055512;28;20179;-79
2021/07/24 00:57:44;;;;;;;8.77;7.60;;;19.70;99.90;;;;;;5055430;28;20187;-79
2021/07/24 01:00:11;;;;;;;9.95;6.95;;;19.50;99.90;;;;;;5055751;28;20183;-79
2021/07/24 01:02:37;;;;;;;15.75;7.50;;;19.50;99.90;;;;;;5055292;28;20520;-78
2021/07/24 01:05:06;;;;;;;7.57;6.88;;;19.50;99.90;;;;;;5037735;28;20187;-78
2021/07/24 01:07:38;;;;;;;9.65;7.38;;;19.50;99.90;;;;;;5054947;28;20167;-81
2021/07/24 01:10:05;;;;;;;10.45;7.47;;;19.40;99.90;;;;;;5055907;28;20167;-79
2021/07/24 01:12:33;;;;;;;7.78;7.15;;;19.40;99.90;;;;;;5055885;28;20175;-82
2021/07/24 01:15:01;;;;;;;9.30;7.20;;;19.50;99.90;;;;;;5037836;28;20195;-80
2021/07/24 01:17:26;;;;;;;12.18;8.35;;;19.40;99.90;;;;;;5037688;28;20241;-80
2021/07/24 01:19:52;;;;;;;11.63;7.38;;;19.40;99.90;;;;;;5055257;28;20167;-79
2021/07/24 01:22:17;;;;;;;16.33;7.90;;;19.50;99.90;;;;;;5055204;28;20221;-79
2021/07/24 01:24:43;;;;;;;9.52;7.75;;;19.30;99.90;;;;;;5037504;28;20602;-79
2021/07/24 01:27:09;;;;;;;11.77;8.10;;;19.30;99.90;;;;;;5055381;28;20183;-79
2021/07/24 01:29:36;;;;;;;9.38;7.53;;;19.30;99.90;;;;;;5054705;28;20175;-79
2021/07/24 01:32:05;;;;;;;12.65;7.95;;;19.20;99.90;;;;;;5054565;28;20163;-79
2021/07/24 01:34:31;;;;;;;10.38;7.43;;;19.10;99.90;;;;;;5054705;28;20179;-79
2021/07/24 01:36:57;;;;;;;10.07;7.93;;;19.10;99.90;;;;;;5054372;28;20167;-79
2021/07/24 01:39:23;;;;;;;11.07;8.15;;;19.00;99.90;;;;;;5054569;28;20245;-79
2021/07/24 01:41:49;;;;;;;8.07;7.38;;;18.90;99.90;;;;;;5036310;28;20643;-79
2021/07/24 01:44:15;;;;;;;10.40;8.07;;;18.90;99.90;;;;;;5054418;28;20163;-80
2021/07/24 01:46:41;;;;;;;20.38;7.90;;;18.80;99.90;;;;;;5036478;28;20168;-79
2021/07/24 01:54:51;;;;;;;10.77;8.35;;;18.70;99.90;;;;;;5055043;28;20609;-80
2021/07/24 01:57:19;;;;;;;9.45;8.45;;;18.80;99.90;;;;;;5054931;28;20174;-80
2021/07/24 01:59:47;;;;;;;10.10;8.05;;;18.80;99.90;;;;;;5054888;28;20182;-79
2021/07/24 02:02:16;;;;;;;9.75;8.10;;;18.90;99.90;;;;;;5054853;28;20167;-79
2021/07/24 02:04:50;;;;;;;14.50;8.38;;;19.00;99.90;;;;;;5036503;28;20329;-80
2021/07/24 02:07:17;;;;;;;9.13;8.23;;;19.00;99.90;;;;;;5053912;28;20159;-79
2021/07/24 02:09:44;;;;;;;15.13;9.30;;;19.00;99.90;;;;;;5036132;28;20172;-78
2021/07/24 02:12:10;;;;;;;14.27;7.95;;;19.10;99.90;;;;;;5054084;28;20547;-77
2021/07/24 02:14:36;;;;;;;18.52;8.25;;;18.90;99.90;;;;;;5054032;28;20262;-77
2021/07/24 02:17:02;;;;;;;19.42;8.38;;;18.80;99.90;;;;;;5053803;28;20257;-79
2021/07/24 02:19:31;;;;;;;11.63;7.25;;;18.60;99.90;;;;;;5053788;28;20217;-79
2021/07/24 02:21:57;;;;;;;14.00;7.88;;;18.70;99.90;;;;;;5035716;28;20168;-79
2021/07/24 02:24:22;;;;;;;11.52;8.32;;;18.70;99.90;;;;;;5035690;28;20195;-79
2021/07/24 02:26:48;;;;;;;11.00;8.15;;;18.60;99.90;;;;;;5053666;28;20602;-79
2021/07/24 02:29:13;;;;;;;11.90;8.63;;;18.50;99.90;;;;;;5053343;28;20201;-79
2021/07/24 02:31:39;;;;;;;10.23;8.02;;;18.50;99.90;;;;;;5035655;28;20223;-79
2021/07/24 02:34:05;;;;;;;10.93;8.05;;;18.50;99.90;;;;;;5035440;28;20565;-79
2021/07/24 02:36:30;;;;;;;16.27;10.57;;;18.60;99.90;;;;;;5053465;28;20624;-80
2021/07/24 02:38:56;;;;;;;9.32;8.27;;;18.70;99.90;;;;;;5053340;28;20203;-77
2021/07/24 02:41:21;;;;;;;9.52;7.78;;;18.70;99.90;;;;;;5035534;28;20182;-77
2021/07/24 02:43:47;;;;;;;11.73;7.80;;;18.70;99.90;;;;;;5053351;28;20171;-78
2021/07/24 02:46:19;;;;;;;29.55;8.70;;;18.80;99.90;;;;;;5035471;28;20660;-79
2021/07/24 02:48:46;;;;;;;11.10;8.82;;;18.90;99.90;;;;;;5053167;28;20218;-78
2021/07/24 02:51:12;;;;;;;13.00;9.43;;;18.80;99.90;;;;;;5053116;28;20163;-77
2021/07/24 02:53:38;;;;;;;8.27;7.57;;;19.10;99.90;;;;;;5053068;28;20642;-78
2021/07/24 02:56:04;;;;;;;10.60;8.35;;;19.20;99.90;;;;;;5052940;28;20183;-78
2021/07/24 02:58:29;;;;;;;12.45;9.73;;;19.30;99.90;;;;;;5053081;28;20299;-78
2021/07/24 03:00:55;;;;;;;11.18;9.05;;;19.00;99.90;;;;;;5034989;28;20240;-78
2021/07/24 03:03:21;;;;;;;11.52;8.18;;;19.00;99.90;;;;;;5053148;28;20179;-78
2021/07/24 03:05:48;;;;;;;14.82;7.95;;;18.90;99.90;;;;;;5052595;28;20218;-78
2021/07/24 03:08:14;;;;;;;14.48;8.85;;;18.90;99.90;;;;;;5052881;28;20207;-78
2021/07/24 03:10:40;;;;;;;13.75;8.60;;;19.00;99.90;;;;;;5052812;28;20244;-78
2021/07/24 03:13:05;;;;;;;9.80;8.35;;;18.80;99.90;;;;;;5034883;28;20632;-79
2021/07/24 03:15:31;;;;;;;10.15;9.07;;;18.90;99.90;;;;;;5052730;28;20241;-79
2021/07/24 03:17:57;;;;;;;8.82;8.00;;;19.00;99.90;;;;;;5052442;28;20218;-79
2021/07/24 03:20:22;;;;;;;12.93;8.38;;;19.20;99.90;;;;;;5034638;28;20595;-79
2021/07/24 03:22:48;;;;;;;9.85;8.60;;;19.10;99.90;;;;;;5052662;28;20174;-79
2021/07/24 03:25:14;;;;;;;8.85;8.13;;;19.10;99.90;;;;;;5034643;28;20191;-78
2021/07/24 03:27:39;;;;;;;9.48;8.57;;;19.10;99.90;;;;;;5052756;28;20183;-78
2021/07/24 03:30:07;;;;;;;10.30;8.10;;;19.10;99.90;;;;;;5052514;28;20578;-78
2021/07/24 03:32:33;;;;;;;10.95;8.50;;;19.10;99.90;;;;;;5051824;28;20615;-78
2021/07/24 03:34:58;;;;;;;10.25;8.77;;;18.90;99.90;;;;;;5052334;28;20193;-78
2021/07/24 03:37:24;;;;;;;12.90;9.27;;;18.70;99.90;;;;;;5052519;28;20163;-78
2021/07/24 03:39:50;;;;;;;10.38;8.80;;;18.70;99.90;;;;;;5034392;28;20233;-79
2021/07/24 03:42:15;;;;;;;12.85;8.82;;;18.70;99.90;;;;;;5034385;28;20624;-78
2021/07/24 03:44:41;;;;;;;31.38;9.10;;;18.60;99.90;;;;;;5052017;28;20222;-79
2021/07/24 03:47:07;;;;;;;12.38;9.93;;;18.60;99.90;;;;;;5052300;28;20163;-79
2021/07/24 03:49:32;;;;;;;12.15;9.38;;;18.70;99.90;;;;;;5052210;28;20167;-80
2021/07/24 03:51:58;;;;;;;14.02;8.80;;;18.70;99.90;;;;;;5034406;28;20617;-79
2021/07/24 03:54:23;;;;;;;11.70;9.52;;;18.70;99.90;;;;;;5051978;28;20194;-78
2021/07/24 03:56:49;;;;;;;12.23;9.77;;;18.60;99.90;;;;;;5052149;28;20167;-78
2021/07/24 03:59:15;;;;;;;14.70;9.75;;;18.60;99.90;;;;;;5052096;28;20210;-79
2021/07/24 04:01:43;;;;;;;11.57;9.32;;;18.50;99.90;;;;;;5052437;28;20163;-79
2021/07/24 04:04:09;;;;;;;14.75;9.63;;;18.40;99.90;;;;;;5056160;28;20191;-79
2021/07/24 04:06:35;;;;;;;15.23;9.88;;;18.40;99.90;;;;;;5063057;28;20167;-79
2021/07/24 04:09:01;;;;;;;13.80;10.13;;;18.40;99.90;;;;;;5063811;28;20205;-79
2021/07/24 04:11:28;;;;;;;10.02;9.00;;;18.30;99.90;;;;;;5046895;28;20163;-78
2021/07/24 04:13:54;;;;;;;16.58;10.52;;;18.20;99.90;;;;;;5067856;28;20174;-86
2021/07/24 04:16:20;;;;;;;16.13;9.98;;;18.30;99.90;;;;;;5076469;28;20183;-82
2021/07/24 04:18:46;;;;;;;14.23;9.45;;;18.30;99.90;;;;;;5058937;28;20222;-81
2021/07/24 04:21:15;;;;;;;11.85;9.52;;;18.20;99.90;;;;;;5058955;28;20167;-79
2021/07/24 04:23:41;;;;;;;12.50;10.15;;;18.30;99.90;;;;;;5076547;28;20163;-80
2021/07/24 04:26:07;;;;;;;12.98;9.75;;;18.30;99.90;;;;;;5057577;28;20192;-79
2021/07/24 04:28:32;;;;;;;13.15;9.88;;;18.30;99.90;;;;;;5052313;28;20178;-78
2021/07/24 04:30:58;;;;;;;15.10;9.65;;;18.20;99.90;;;;;;5051871;28;20668;-79
2021/07/24 04:33:23;;;;;;;11.10;9.80;;;18.20;99.90;;;;;;5052028;28;20182;-79
2021/07/24 04:35:49;;;;;;;14.88;9.65;;;18.30;99.90;;;;;;5052033;28;20186;-79
2021/07/24 04:38:16;;;;;;;12.55;9.65;;;18.40;99.90;;;;;;5052085;28;20293;-79
2021/07/24 04:40:41;;;;;;;11.77;9.75;;;18.40;99.90;;;;;;5052046;28;20214;-79
2021/07/24 04:43:07;;;;;;;11.13;8.90;;;18.40;99.90;;;;;;5053232;28;20163;-80
2021/07/24 04:45:33;;;;;;;17.83;10.25;;;18.50;99.90;;;;;;5056772;28;20548;-79
2021/07/24 04:47:59;;;;;;;11.90;9.88;;;18.50;99.90;;;;;;5056710;28;20570;-80
2021/07/24 04:50:25;;;;;;;14.02;10.63;;;18.60;99.90;;;;;;5056256;28;20220;-79
2021/07/24 04:52:51;;;;;;;14.75;9.98;;;18.70;99.90;;;;;;5038211;28;20232;-79
2021/07/24 04:55:18;;;;;;;15.50;10.45;;;18.50;99.90;;;;;;5038028;28;20230;-78
2021/07/24 04:57:44;;;;;;;12.70;10.15;;;18.50;99.90;;;;;;5056491;28;20159;-79
2021/07/24 05:00:11;;;;;;;12.65;10.57;;;18.50;99.90;;;;;;5055675;28;20179;-78
2021/07/24 05:02:37;;;;;;;11.90;9.90;;;18.40;99.90;;;;;;5055765;28;20159;-79
2021/07/24 05:05:03;;;;;;;13.23;8.48;;;18.30;99.90;;;;;;5056001;28;20656;-79
2021/07/24 05:07:31;;;;;;;20.85;9.10;;;18.30;99.90;;;;;;5055696;28;20652;-79
2021/07/24 05:09:57;;;;;;;14.82;8.90;;;18.40;99.90;;;;;;5055334;28;20167;-78
2021/07/24 05:12:23;;;;;;;9.32;7.78;;;18.40;99.90;;;;;;5037673;28;20182;-79
2021/07/24 05:14:48;;;;;;;13.63;10.25;;;18.50;99.90;;;;;;5055766;28;20270;-79
2021/07/24 05:17:14;;;;;;;10.27;8.77;;;18.50;99.90;;;;;;5055523;28;20733;-79
2021/07/24 05:19:45;;;;;;;10.63;9.40;;;18.30;99.90;;;;;;5055119;28;20215;-79
2021/07/24 05:22:12;;;;;;;16.05;9.48;;;18.30;99.90;;;;;;5055281;28;20171;-79
2021/07/24 05:24:43;;;;;;;15.45;10.05;;;18.40;99.90;;;;;;5054886;28;20257;-79
2021/07/24 05:27:10;;;;;;;12.57;8.60;;;18.50;99.90;;;;;;5036990;28;20187;-79
2021/07/24 05:29:36;;;;;;;15.00;8.75;;;18.50;99.90;;;;;;5037449;28;20182;-79
2021/07/24 05:32:01;;;;;;;12.02;8.80;;;18.50;99.90;;;;;;5054456;28;20171;-79
2021/07/24 05:34:27;;;;;;;24.17;9.75;;;18.80;99.90;;;;;;5054599;28;20628;-79
2021/07/24 05:36:53;;;;;;;14.35;9.55;;;18.80;99.90;;;;;;5054839;28;20250;-79
2021/07/24 05:39:19;;;;;;;18.48;9.65;;;18.90;99.90;;;;;;5054541;28;20207;-78
2021/07/24 05:41:45;;;;;;;9.25;8.35;;;19.00;99.90;;;;;;5054187;28;20163;-79
2021/07/24 05:44:12;;;;;;;10.75;9.45;;;18.80;99.90;;;;;;5054127;28;20179;-78
2021/07/24 05:46:38;;;;;;;11.20;9.38;;;18.90;99.90;;;;;;5054337;28;20160;-79
2021/07/24 05:49:04;;;;;;;13.50;8.20;;;18.90;99.90;;;;;;5036509;28;20240;-78
2021/07/24 05:51:30;;;;;;;10.88;9.30;;;19.00;99.90;;;;;;5036631;28;20163;-79
2021/07/24 05:53:55;;;;;;;13.77;9.45;;;19.00;99.90;;;;;;5053832;28;20178;-79
2021/07/24 05:56:21;;;;;;;11.52;8.13;;;19.00;99.90;;;;;;5036280;28;20183;-79
2021/07/24 05:58:47;;;;;;;9.82;8.30;;;19.00;99.90;;;;;;5054180;28;20214;-79
2021/07/24 06:01:12;;;;;;;14.30;8.93;;;19.00;99.90;;;;;;5054138;28;20624;-79
2021/07/24 06:03:39;;;;;;;10.57;9.57;;;19.20;99.90;;;;;;5036251;28;20174;-79
2021/07/24 06:06:05;;;;;;;9.75;8.80;;;19.50;99.90;;;;;;5054599;28;20221;-79
2021/07/24 06:08:31;;;;;;;16.65;9.55;;;19.80;99.90;;;;;;5054183;28;20195;-79
2021/07/24 06:11:04;;;;;;;13.98;8.57;;;19.70;99.90;;;;;;5054095;28;20504;-79
2021/07/24 06:13:30;;;;;;;10.68;8.57;;;19.90;99.90;;;;;;5054016;28;20175;-79
2021/07/24 06:15:57;;;;;;;9.82;8.88;;;20.00;99.90;;;;;;5053746;28;20718;-79
2021/07/24 06:18:23;;;;;;;14.65;8.80;;;20.20;99.90;;;;;;5054026;28;20306;-79
2021/07/24 06:20:50;;;;;;;14.00;8.60;;;20.40;99.90;;;;;;5053761;28;20246;-80
2021/07/24 06:23:16;;;;;;;11.25;8.88;;;20.50;99.90;;;;;;5035892;28;20186;-80
2021/07/24 06:25:43;;;;;;;12.73;8.75;;;20.50;99.90;;;;;;5053585;28;20183;-81
2021/07/24 06:28:09;;;;;;;14.20;9.60;;;20.40;99.90;;;;;;5035727;28;20187;-79
2021/07/24 06:30:35;;;;;;;10.65;9.48;;;20.20;99.90;;;;;;5053609;28;20258;-78
2021/07/24 06:33:00;;;;;;;11.05;9.10;;;20.20;99.90;;;;;;5053489;28;20246;-79
2021/07/24 06:35:26;;;;;;;13.50;7.88;;;20.20;99.90;;;;;;5053471;28;20191;-79
2021/07/24 06:37:52;;;;;;;13.18;8.43;;;20.40;99.90;;;;;;5053723;28;20278;-79
2021/07/24 06:40:18;;;;;;;9.88;8.65;;;20.50;99.90;;;;;;5035374;28;20223;-78
2021/07/24 06:42:44;;;;;;;10.57;8.52;;;20.50;99.90;;;;;;5053138;28;20520;-78
2021/07/24 06:45:10;;;;;;;8.95;7.90;;;20.40;99.90;;;;;;5052968;28;20187;-79
2021/07/24 06:47:36;;;;;;;22.52;10.15;;;20.60;99.90;;;;;;5053226;28;20155;-78
2021/07/24 06:50:01;;;;;;;9.27;8.38;;;20.60;99.90;;;;;;5035545;28;20258;-79
2021/07/24 06:52:27;;;;;;;10.13;9.07;;;21.00;99.90;;;;;;5035199;28;20750;-79
2021/07/24 06:54:52;;;;;;;13.40;8.85;;;21.20;99.90;;;;;;5052897;28;20187;-79
2021/07/24 06:57:18;;;;;;;12.70;8.48;;;21.20;99.90;;;;;;5053119;28;20171;-79
2021/07/24 06:59:44;;;;;;;12.00;8.73;;;21.30;99.90;;;;;;5034798;28;20214;-78
2021/07/24 07:02:10;;;;;;;12.55;8.60;;;21.30;99.90;;;;;;5052785;28;20202;-79
2021/07/24 07:04:36;;;;;;;19.45;8.85;;;21.10;99.90;;;;;;5053559;28;20538;-80
2021/07/24 07:07:03;;;;;;;18.73;9.30;;;21.10;99.90;;;;;;5052656;28;20242;-79
2021/07/24 07:09:29;;;;;;;16.88;9.10;;;20.90;99.90;;;;;;5053474;28;20257;-80
2021/07/24 07:11:58;;;;;;;16.55;8.93;;;20.90;99.90;;;;;;5034985;28;20643;-80
2021/07/24 07:14:24;;;;;;;13.63;8.73;;;21.00;99.90;;;;;;5034691;28;20207;-80
2021/07/24 07:16:50;;;;;;;10.05;9.05;;;21.20;99.90;;;;;;5035032;28;20170;-80
2021/07/24 07:19:16;;;;;;;12.07;9.43;;;21.20;99.90;;;;;;5052655;28;20211;-77
2021/07/24 07:21:41;;;;;;;12.23;8.70;;;21.00;99.90;;;;;;5052647;28;20167;-77
2021/07/24 07:24:07;;;;;;;10.05;9.05;;;20.80;99.90;;;;;;5052489;28;20217;-78
2021/07/24 07:26:33;;;;;;;13.77;8.23;;;20.90;99.90;;;;;;5034935;28;20179;-78
2021/07/24 07:29:03;;;;;;;10.13;9.07;;;21.10;99.90;;;;;;5052554;28;20167;-78
2021/07/24 07:31:32;;;;;;;10.10;9.13;;;21.20;99.90;;;;;;5052284;28;20254;-78
2021/07/24 07:33:58;;;;;;;12.48;8.70;;;21.00;99.90;;;;;;5052396;28;20258;-78
2021/07/24 07:36:24;;;;;;;16.08;8.90;;;20.70;99.90;;;;;;5034387;28;20286;-79
2021/07/24 07:38:50;;;;;;;12.13;8.88;;;20.60;99.90;;;;;;5034437;28;20210;-83
2021/07/24 07:41:17;;;;;;;9.63;8.70;;;20.70;99.90;;;;;;5052039;28;20163;-79
2021/07/24 07:43:43;;;;;;;15.43;9.82;;;20.70;99.90;;;;;;5034516;28;20627;-78
2021/07/24 07:46:09;;;;;;;12.95;9.48;;;20.50;99.90;;;;;;5051958;28;20582;-78
2021/07/24 07:48:36;;;;;;;14.57;10.40;;;20.30;99.90;;;;;;5052245;28;20163;-79
2021/07/24 07:51:05;;;;;;;16.60;9.90;;;20.60;99.90;;;;;;5052576;28;20253;-78
2021/07/24 07:53:32;;;;;;;10.55;9.45;;;20.90;99.90;;;;;;5034847;28;20501;-78
2021/07/24 07:55:57;;;;;;;11.27;9.50;;;21.10;99.90;;;;;;5034421;28;20256;-79
2021/07/24 07:58:23;;;;;;;11.75;9.10;;;21.10;99.90;;;;;;5052180;28;20256;-79
2021/07/24 08:00:50;;;;;;;15.80;8.98;;;21.20;99.90;;;;;;5051957;28;20167;-79
2021/07/24 08:03:15;;;;;;;12.90;10.75;;;21.20;99.90;;;;;;5052140;28;20173;-79
2021/07/24 08:05:41;;;;;;;10.23;8.80;;;21.10;99.90;;;;;;5052072;28;20186;-79
2021/07/24 08:08:07;;;;;;;13.65;9.40;;;21.30;99.90;;;;;;5052489;28;20173;-78
2021/07/24 08:10:34;;;;;;;10.82;9.80;;;21.30;99.90;;;;;;5052459;28;20163;-78
2021/07/24 08:13:16;;;;;;;11.25;9.13;;;21.50;99.90;;;;;;5052225;28;20198;-79
2021/07/24 08:15:43;;;;;;;10.63;8.75;;;21.50;99.90;;;;;;5052136;28;20187;-78
2021/07/24 08:18:08;;;;;;;11.75;9.23;;;21.70;99.90;;;;;;5055299;28;20222;-79
2021/07/24 08:20:34;;;;;;;14.60;8.68;;;22.00;99.90;;;;;;5038483;28;20605;-78
2021/07/24 08:23:01;;;;;;;9.70;8.70;;;22.00;99.90;;;;;;5056376;28;20163;-79
2021/07/24 08:25:27;;;;;;;12.05;9.73;;;22.10;99.90;;;;;;5055869;28;20191;-79
2021/07/24 08:27:55;;;;;;;9.40;8.55;;;22.10;99.90;;;;;;5055981;28;20179;-78
2021/07/24 08:30:21;;;;;;;15.82;9.57;;;22.10;99.90;;;;;;5055920;28;20190;-79
2021/07/24 08:32:47;;;;;;;22.55;9.75;;;22.00;99.90;;;;;;5055842;28;20615;-79
2021/07/24 08:35:12;;;;;;;22.52;10.10;;;21.90;99.90;;;;;;5055886;28;20198;-79
2021/07/24 08:37:38;;;;;;;9.95;8.80;;;22.00;99.90;;;;;;5055774;28;20240;-79
2021/07/24 08:40:04;;;;;;;17.08;9.00;;;22.10;99.90;;;;;;5055840;28;20628;-78
2021/07/24 08:42:37;;;;;;;10.25;8.63;;;22.30;99.90;;;;;;5055865;28;20189;-79
2021/07/24 08:45:03;;;;;;;9.98;8.98;;;22.60;99.90;;;;;;5055769;28;20224;-78
2021/07/24 08:47:30;;;;;;;15.07;9.88;;;22.80;99.90;;;;;;5055647;28;20167;-79
2021/07/24 08:49:58;;;;;;;13.48;8.95;;;23.00;99.90;;;;;;5055768;28;20246;-79
2021/07/24 08:52:28;;;;;;;14.32;9.60;;;23.20;99.90;;;;;;5037660;28;20159;-79
2021/07/24 08:54:54;;;;;;;12.57;8.82;;;23.20;99.90;;;;;;5038083;28;20187;-79
2021/07/24 08:57:24;;;;;;;12.90;8.90;;;23.30;99.90;;;;;;5055259;28;20168;-79
2021/07/24 08:59:51;;;;;;;15.95;9.30;;;23.40;99.90;;;;;;5037206;28;20298;-82
2021/07/24 09:02:24;;;;;;;10.48;8.85;;;23.30;99.90;;;;;;5055317;28;20183;-78
2021/07/24 09:04:51;;;;;;;13.80;9.02;;;23.50;99.90;;;;;;5055283;28;20215;-79
2021/07/24 09:07:17;;;;;;;17.33;10.48;;;23.60;99.90;;;;;;5037264;28;20198;-79
2021/07/24 09:09:44;;;;;;;19.13;9.68;;;23.60;99.90;;;;;;5055469;28;20171;-78
2021/07/24 09:12:10;;;;;;;10.82;9.18;;;23.70;99.90;;;;;;5055245;28;20159;-79
2021/07/24 09:14:36;;;;;;;13.68;8.50;;;23.90;99.90;;;;;;5055130;28;20202;-79
2021/07/24 09:17:03;;;;;;;11.95;9.32;;;24.00;99.90;;;;;;5054990;28;20534;-79
2021/07/24 09:19:30;;;;;;;10.18;9.10;;;24.10;99.90;;;;;;5054866;28;20303;-79
2021/07/24 09:21:56;;;;;;;10.35;9.35;;;24.30;99.90;;;;;;5055295;28;20160;-79
2021/07/24 09:24:23;;;;;;;11.50;10.25;;;24.30;99.90;;;;;;5055040;28;20252;-79
2021/07/24 09:26:50;;;;;;;13.68;8.60;;;24.50;99.90;;;;;;5054755;28;20179;-79
2021/07/24 09:29:20;;;;;;;16.45;10.30;;;24.50;99.90;;;;;;5054129;28;20213;-79
2021/07/24 09:31:47;;;;;;;11.73;8.27;;;24.50;99.90;;;;;;5054807;28;20167;-79
2021/07/24 09:34:14;;;;;;;12.60;9.35;;;24.50;99.90;;;;;;5055134;28;20526;-79
2021/07/24 09:36:41;;;;;;;10.23;9.00;;;24.40;99.90;;;;;;5054523;28;20659;-79
2021/07/24 09:39:18;;;;;;;17.63;8.98;;;24.20;99.90;;;;;;5054489;28;20210;-79
2021/07/24 09:41:45;;;;;;;17.95;9.27;;;24.10;99.90;;;;;;5054640;28;20167;-78
2021/07/24 09:44:26;;;;;;;10.40;9.05;;;24.00;99.90;;;;;;5054643;28;20167;-78
2021/07/24 09:46:55;;;;;;;12.48;9.05;;;24.20;99.90;;;;;;5054713;28;20186;-79
2021/07/24 09:49:36;;;;;;;9.68;8.77;;;23.80;99.90;;;;;;5054468;28;20183;-79
2021/07/24 09:52:15;;;;;;;11.45;8.18;;;23.90;99.90;;;;;;5054294;28;20572;-79
2021/07/24 09:54:42;;;;;;;16.20;9.65;;;23.90;99.90;;;;;;5037050;28;20624;-79
2021/07/24 09:57:08;;;;;;;15.45;8.50;;;23.90;99.90;;;;;;5054193;28;20195;-79
2021/07/24 09:59:34;;;;;;;15.50;8.70;;;24.10;99.90;;;;;;5054144;28;20237;-79
2021/07/24 10:02:03;;;;;;;12.30;8.60;;;24.30;99.90;;;;;;5053876;28;20167;-79
2021/07/24 10:04:28;;;;;;;9.43;8.63;;;24.40;99.90;;;;;;5054233;28;20225;-78
2021/07/24 10:07:05;;;;;;;15.38;10.05;;;24.50;99.90;;;;;;5053876;28;20195;-79
2021/07/24 10:09:35;;;;;;;10.60;9.10;;;24.00;99.90;;;;;;5053710;28;20221;-79
2021/07/24 10:12:03;;;;;;;16.52;9.45;;;23.90;99.90;;;;;;5053645;28;20193;-79
2021/07/24 10:14:29;;;;;;;14.15;8.90;;;24.20;99.90;;;;;;5053762;28;20258;-79
2021/07/24 10:16:57;;;;;;;9.50;8.52;;;24.20;99.90;;;;;;5053522;28;20167;-79
2021/07/24 10:19:25;;;;;;;16.20;9.68;;;24.20;99.90;;;;;;5053705;28;20209;-79
2021/07/24 10:21:52;;;;;;;23.63;10.10;;;24.10;99.90;;;;;;5053756;28;20167;-79
2021/07/24 10:24:18;;;;;;;11.32;9.43;;;23.70;99.90;;;;;;5053530;28;20167;-79
2021/07/24 10:27:02;;;;;;;11.43;9.82;;;23.70;99.90;;;;;;5053489;28;20237;-79
2021/07/24 10:29:32;;;;;;;10.35;9.15;;;23.90;99.90;;;;;;5053722;28;20233;-79
2021/07/24 10:32:08;;;;;;;10.88;8.18;;;24.10;99.90;;;;;;5053592;28;20575;-79
2021/07/24 10:34:36;;;;;;;12.80;10.30;;;24.30;99.90;;;;;;5053682;28;20278;-79
2021/07/24 10:37:33;;;;;;;13.65;9.98;;;23.90;99.90;;;;;;5053420;28;20211;-79
2021/07/24 10:40:21;;;;;;;10.63;9.55;;;23.70;99.90;;;;;;5052790;28;20199;-79
2021/07/24 10:42:51;;;;;;;11.77;9.32;;;23.50;99.90;;;;;;5052854;28;20170;-80
2021/07/24 10:45:36;;;;;;;12.57;10.98;;;23.60;99.90;;;;;;5053244;28;20558;-79
2021/07/24 10:48:14;;;;;;;13.57;9.25;;;23.60;99.90;;;;;;5052678;28;20171;-79
2021/07/24 10:50:57;;;;;;;16.67;10.25;;;23.50;99.90;;;;;;5053184;28;20171;-79
2021/07/24 10:53:28;;;;;;;13.65;8.90;;;23.50;99.90;;;;;;5053328;28;20174;-79
2021/07/24 10:55:55;;;;;;;22.88;10.65;;;23.60;99.90;;;;;;5035451;28;20191;-79
2021/07/24 10:58:23;;;;;;;11.25;10.15;;;23.60;99.90;;;;;;5053158;28;20667;-79
2021/07/24 11:00:52;;;;;;;12.75;8.90;;;23.80;99.90;;;;;;5052842;28;20167;-79
2021/07/24 11:03:34;;;;;;;14.98;10.38;;;23.70;99.90;;;;;;5053263;28;20155;-79
2021/07/24 11:06:20;;;;;;;14.88;11.27;;;23.50;99.90;;;;;;5053122;28;20183;-79
2021/07/24 11:08:58;;;;;;;15.73;10.98;;;23.60;99.90;;;;;;5052771;28;20254;-79
2021/07/24 11:11:47;;;;;;;14.88;11.60;;;23.80;99.90;;;;;;5034849;28;20665;-79
2021/07/24 11:14:34;;;;;;;14.20;9.68;;;23.90;99.90;;;;;;4996943;28;20187;-79
2021/07/24 11:17:11;;;;;;;14.63;11.25;;;23.70;99.90;;;;;;5035184;28;20175;-80
2021/07/24 11:19:45;;;;;;;13.65;10.35;;;23.80;99.90;;;;;;5035161;28;20218;-79
2021/07/24 11:22:10;;;;;;;17.30;10.85;;;23.80;99.90;;;;;;5053023;28;20258;-80
2021/07/24 11:24:37;;;;;;;17.42;11.15;;;23.70;99.90;;;;;;5052992;28;20593;-79
2021/07/24 11:27:03;;;;;;;12.50;11.15;;;23.60;99.90;;;;;;5052813;28;20254;-79
2021/07/24 11:29:29;;;;;;;15.75;11.93;;;23.60;99.90;;;;;;5035160;28;20170;-79
2021/07/24 11:31:55;;;;;;;22.20;11.65;;;23.50;99.90;;;;;;5035030;28;20678;-78
2021/07/24 11:34:21;;;;;;;15.05;11.23;;;23.70;99.90;;;;;;5034840;28;20688;-78
2021/07/24 11:36:51;;;;;;;17.17;11.10;;;23.40;99.90;;;;;;5052768;28;20185;-79
2021/07/24 11:39:21;;;;;;;16.23;10.35;;;23.30;99.90;;;;;;5034493;28;20207;-80
2021/07/24 11:41:47;;;;;;;11.45;10.23;;;23.30;99.90;;;;;;5052709;28;20195;-78
2021/07/24 11:44:26;;;;;;;16.27;11.13;;;23.40;99.90;;;;;;5052567;28;20213;-79
2021/07/24 11:47:09;;;;;;;15.63;10.30;;;23.50;99.90;;;;;;5052712;28;20168;-79
2021/07/24 11:49:37;;;;;;;16.90;11.25;;;23.50;99.90;;;;;;5034944;28;20167;-79
2021/07/24 11:52:02;;;;;;;14.85;10.65;;;23.70;99.90;;;;;;5054510;28;20160;-79
2021/07/24 11:54:33;;;;;;;13.13;11.80;;;24.00;99.90;;;;;;5044575;28;20189;-79
2021/07/24 11:57:02;;;;;;;12.50;10.98;;;23.90;99.90;;;;;;5063419;28;20510;-79
2021/07/24 11:59:29;;;;;;;11.45;10.23;;;23.80;99.90;;;;;;5064806;28;20293;-80
2021/07/24 12:01:59;;;;;;;11.57;10.40;;;23.70;99.90;;;;;;5066158;28;20654;-80
2021/07/24 12:04:25;;;;;;;17.77;11.55;;;23.60;99.90;;;;;;5058130;28;20182;-80
2021/07/24 12:07:02;;;;;;;11.80;10.60;;;23.80;99.90;;;;;;5075691;28;20765;-80
2021/07/24 12:09:29;;;;;;;12.52;11.05;;;23.90;99.90;;;;;;5074313;28;20182;-83
2021/07/24 12:11:58;;;;;;;15.30;10.40;;;24.00;99.90;;;;;;5074140;28;20164;-81
2021/07/24 12:14:26;;;;;;;22.60;11.15;;;24.10;99.90;;;;;;5058278;28;20210;-79
2021/07/24 12:17:08;;;;;;;13.13;10.65;;;24.30;99.90;;;;;;5059847;28;20166;-79
2021/07/24 12:19:36;;;;;;;11.63;9.88;;;24.10;99.90;;;;;;5071708;28;20206;-78
2021/07/24 12:22:14;;;;;;;20.75;11.27;;;24.10;99.90;;;;;;5063939;28;20190;-78
2021/07/24 12:24:41;;;;;;;17.52;10.25;;;24.10;99.90;;;;;;5052657;28;20269;-79
2021/07/24 12:27:08;;;;;;;12.38;11.10;;;24.30;99.90;;;;;;5052366;28;20175;-78
2021/07/24 12:29:52;;;;;;;12.75;10.30;;;24.30;99.90;;;;;;5052570;28;20167;-79
2021/07/24 12:32:20;;;;;;;11.23;10.13;;;24.20;99.90;;;;;;5051870;28;20174;-79
2021/07/24 12:34:48;;;;;;;11.30;9.55;;;24.30;99.90;;;;;;5033849;28;20579;-79
2021/07/24 12:37:33;;;;;;;13.07;11.05;;;24.40;99.90;;;;;;5051644;28;20616;-79
2021/07/24 12:40:19;;;;;;;10.90;9.80;;;24.70;99.90;;;;;;5051689;28;20211;-79
2021/07/24 12:42:46;;;;;;;21.30;9.98;;;25.00;99.90;;;;;;5033945;28;20194;-79
2021/07/24 12:45:31;;;;;;;11.43;10.10;;;25.40;99.90;;;;;;5051560;28;20194;-79